createdAt,value
2018-05-14T00:00:14.461Z,4.00
2018-05-14T00:01:14.340Z,3.90
2018-05-14T00:02:14.249Z,3.90
2018-05-14T00:03:14.158Z,3.80
2018-05-14T00:04:14.068Z,4.00
2018-05-14T00:05:14.008Z,3.50
2018-05-14T00:06:13.891Z,3.90
2018-05-14T00:07:13.799Z,4.10
2018-05-14T00:08:13.712Z,4.00
2018-05-14T00:09:14.160Z,4.00
2018-05-14T00:10:13.561Z,3.70
2018-05-14T00:11:13.444Z,3.80
2018-05-14T00:12:13.353Z,3.90
2018-05-14T00:13:13.266Z,4.00
2018-05-14T00:14:13.174Z,4.20
2018-05-14T00:15:13.118Z,3.80
2018-05-14T00:16:12.997Z,3.70
2018-05-14T00:17:12.908Z,4.00
2018-05-14T00:18:12.818Z,3.90
2018-05-14T00:19:12.730Z,3.40
2018-05-14T00:20:12.674Z,3.60
2018-05-14T00:21:12.550Z,3.90
2018-05-14T00:22:12.459Z,3.90
2018-05-14T00:23:13.110Z,3.80
2018-05-14T00:24:12.285Z,4.20
2018-05-14T00:25:12.221Z,4.10
2018-05-14T00:26:12.101Z,3.50
2018-05-14T00:27:12.016Z,3.80
2018-05-14T00:28:11.923Z,3.90
2018-05-14T00:29:11.837Z,4.00
2018-05-14T00:30:11.777Z,3.80
2018-05-14T00:31:11.653Z,4.00
2018-05-14T00:32:11.565Z,4.10
2018-05-14T00:33:11.784Z,3.70
2018-05-14T00:34:12.113Z,3.80
2018-05-14T00:35:11.328Z,3.80
2018-05-14T00:36:12.171Z,3.80
2018-05-14T00:37:11.120Z,4.10
2018-05-14T00:38:11.030Z,4.00
2018-05-14T00:39:10.940Z,3.70
2018-05-14T00:40:10.881Z,4.00
2018-05-14T00:41:10.762Z,4.00
2018-05-14T00:42:10.671Z,3.90
2018-05-14T00:43:10.582Z,3.70
2018-05-14T00:44:10.496Z,3.90
2018-05-14T00:45:10.407Z,3.20
2018-05-14T00:46:10.345Z,3.60
2018-05-14T00:47:10.226Z,4.30
2018-05-14T00:48:10.134Z,4.10
2018-05-14T00:49:10.045Z,4.10
2018-05-14T00:50:09.955Z,4.10
2018-05-14T00:51:09.899Z,4.10
2018-05-14T00:52:09.796Z,4.10
2018-05-14T00:53:09.686Z,4.10
2018-05-14T00:54:09.898Z,3.80
2018-05-14T00:55:09.515Z,3.80
2018-05-14T00:56:09.449Z,3.90
2018-05-14T00:57:10.166Z,3.80
2018-05-14T00:58:09.237Z,3.90
2018-05-14T00:59:09.148Z,4.10
2018-05-14T01:00:09.060Z,3.90
2018-05-14T01:01:09.004Z,3.60
2018-05-14T01:02:08.881Z,3.70
2018-05-14T01:03:08.791Z,3.70
2018-05-14T01:04:08.702Z,3.90
2018-05-14T01:05:08.614Z,3.60
2018-05-14T01:06:08.553Z,3.80
2018-05-14T01:07:08.434Z,3.80
2018-05-14T01:08:08.343Z,3.80
2018-05-14T01:09:08.254Z,3.80
2018-05-14T01:10:08.165Z,3.70
2018-05-14T01:11:08.623Z,4.00
2018-05-14T01:12:07.994Z,3.70
2018-05-14T01:13:07.896Z,4.20
2018-05-14T01:14:07.823Z,3.70
2018-05-14T01:15:07.717Z,4.40
2018-05-14T01:16:07.658Z,3.70
2018-05-14T01:17:07.541Z,3.70
2018-05-14T01:18:07.449Z,4.10
2018-05-14T01:19:07.360Z,3.80
2018-05-14T01:20:07.269Z,3.60
2018-05-14T01:21:07.182Z,3.90
2018-05-14T01:22:07.122Z,3.70
2018-05-14T01:23:07.000Z,3.80
2018-05-14T01:24:06.916Z,3.90
2018-05-14T01:25:06.819Z,3.70
2018-05-14T01:26:06.740Z,4.10
2018-05-14T01:27:06.670Z,3.90
2018-05-14T01:28:06.619Z,3.90
2018-05-14T01:29:06.751Z,3.90
2018-05-14T01:30:06.372Z,3.80
2018-05-14T01:31:06.288Z,3.70
2018-05-14T01:32:06.223Z,3.60
2018-05-14T01:33:06.106Z,3.90
2018-05-14T01:34:06.017Z,4.10
2018-05-14T01:35:05.925Z,3.90
2018-05-14T01:36:05.932Z,3.90
2018-05-14T01:37:05.774Z,3.90
2018-05-14T01:38:05.656Z,3.70
2018-05-14T01:39:05.565Z,4.10
2018-05-14T01:40:05.480Z,4.10
2018-05-14T01:41:05.385Z,4.00
2018-05-14T01:42:06.187Z,4.40
2018-05-14T01:43:05.500Z,3.90
2018-05-14T01:44:05.118Z,3.90
2018-05-14T01:45:05.027Z,3.80
2018-05-14T01:46:04.935Z,4.40
2018-05-14T01:47:04.878Z,3.50
2018-05-14T01:48:04.759Z,3.80
2018-05-14T01:49:04.667Z,3.90
2018-05-14T01:50:04.670Z,3.90
2018-05-14T01:51:04.489Z,4.00
2018-05-14T01:52:04.430Z,3.80
2018-05-14T01:53:04.319Z,3.80
2018-05-14T01:54:04.219Z,3.90
2018-05-14T01:55:04.129Z,3.60
2018-05-14T01:56:04.054Z,4.20
2018-05-14T01:57:04.078Z,4.00
2018-05-14T01:58:03.856Z,4.00
2018-05-14T01:59:03.769Z,4.20
2018-05-14T02:00:03.684Z,4.30
2018-05-14T02:01:03.591Z,4.30
2018-05-14T02:02:03.528Z,4.10
2018-05-14T02:03:03.508Z,4.00
2018-05-14T02:04:03.319Z,3.90
2018-05-14T02:05:04.136Z,4.30
2018-05-14T02:06:03.139Z,3.90
2018-05-14T02:07:03.080Z,3.90
2018-05-14T02:08:02.959Z,4.00
2018-05-14T02:09:02.871Z,4.00
2018-05-14T02:10:02.783Z,3.90
2018-05-14T02:11:03.673Z,3.90
2018-05-14T02:12:02.601Z,4.00
2018-05-14T02:13:02.551Z,4.10
2018-05-14T02:14:02.420Z,4.00
2018-05-14T02:15:03.192Z,3.90
2018-05-14T02:16:02.242Z,4.50
2018-05-14T02:17:02.157Z,4.20
2018-05-14T02:18:02.093Z,3.60
2018-05-14T02:19:01.971Z,3.90
2018-05-14T02:20:01.882Z,4.00
2018-05-14T02:21:01.791Z,4.00
2018-05-14T02:22:01.701Z,4.00
2018-05-14T02:23:01.642Z,4.30
2018-05-14T02:24:01.524Z,3.90
2018-05-14T02:25:01.434Z,4.40
2018-05-14T02:26:01.357Z,4.30
2018-05-14T02:27:01.253Z,4.00
2018-05-14T02:28:01.195Z,4.50
2018-05-14T02:29:01.072Z,4.10
2018-05-14T02:30:00.981Z,3.90
2018-05-14T02:31:00.893Z,4.10
2018-05-14T02:32:00.801Z,4.20
2018-05-14T02:33:00.745Z,4.20
2018-05-14T02:34:00.621Z,3.80
2018-05-14T02:35:00.534Z,4.10
2018-05-14T02:36:00.443Z,3.80
2018-05-14T02:37:00.351Z,4.20
2018-05-14T02:38:00.293Z,4.10
2018-05-14T02:39:00.171Z,4.40
2018-05-14T02:40:00.097Z,4.20
2018-05-14T02:40:59.992Z,4.30
2018-05-14T02:41:59.900Z,4.40
2018-05-14T02:42:59.858Z,4.00
2018-05-14T02:43:59.724Z,4.30
2018-05-14T02:44:59.633Z,4.40
2018-05-14T02:45:59.542Z,4.20
2018-05-14T02:46:59.453Z,4.40
2018-05-14T02:47:59.362Z,5.50
2018-05-14T02:48:59.301Z,5.30
2018-05-14T02:49:59.192Z,4.40
2018-05-14T02:50:59.091Z,4.30
2018-05-14T02:51:59.002Z,4.00
2018-05-14T02:52:58.914Z,4.50
2018-05-14T02:53:58.851Z,4.00
2018-05-14T02:54:58.734Z,4.30
2018-05-14T02:55:58.642Z,3.60
2018-05-14T02:56:58.552Z,4.30
2018-05-14T02:57:58.462Z,4.60
2018-05-14T02:58:58.407Z,4.50
2018-05-14T02:59:58.281Z,4.00
2018-05-14T03:00:58.193Z,4.80
2018-05-14T03:01:58.101Z,4.10
2018-05-14T03:02:58.658Z,4.30
2018-05-14T03:03:58.006Z,4.60
2018-05-14T03:04:57.852Z,4.00
2018-05-14T03:05:57.739Z,4.50
2018-05-14T03:06:57.653Z,4.00
2018-05-14T03:07:57.578Z,3.90
2018-05-14T03:08:57.504Z,4.00
2018-05-14T03:09:57.381Z,4.30
2018-05-14T03:10:57.295Z,4.00
2018-05-14T03:11:57.202Z,4.50
2018-05-14T03:12:57.110Z,4.20
2018-05-14T03:13:57.060Z,4.60
2018-05-14T03:14:56.929Z,4.70
2018-05-14T03:15:56.839Z,4.30
2018-05-14T03:16:56.754Z,4.10
2018-05-14T03:17:56.659Z,4.70
2018-05-14T03:18:56.569Z,4.50
2018-05-14T03:19:56.510Z,4.30
2018-05-14T03:20:56.391Z,4.20
2018-05-14T03:21:56.297Z,4.20
2018-05-14T03:22:56.208Z,4.70
2018-05-14T03:23:56.122Z,4.30
2018-05-14T03:24:56.060Z,4.30
2018-05-14T03:25:55.936Z,4.50
2018-05-14T03:26:55.847Z,4.40
2018-05-14T03:27:55.758Z,4.10
2018-05-14T03:28:55.669Z,4.30
2018-05-14T03:29:55.608Z,4.10
2018-05-14T03:30:55.485Z,4.20
2018-05-14T03:31:55.397Z,4.00
2018-05-14T03:32:55.308Z,4.20
2018-05-14T03:33:55.306Z,4.50
2018-05-14T03:34:55.126Z,4.40
2018-05-14T03:35:55.068Z,4.00
2018-05-14T03:36:54.946Z,4.40
2018-05-14T03:37:54.854Z,4.40
2018-05-14T03:38:56.660Z,4.60
2018-05-14T03:39:54.675Z,4.20
2018-05-14T03:40:54.706Z,4.20
2018-05-14T03:41:54.494Z,4.80
2018-05-14T03:42:54.402Z,4.50
2018-05-14T03:43:54.314Z,4.10
2018-05-14T03:44:54.224Z,4.80
2018-05-14T03:45:54.165Z,4.40
2018-05-14T03:46:54.045Z,4.80
2018-05-14T03:47:54.047Z,4.20
2018-05-14T03:48:53.865Z,4.30
2018-05-14T03:49:53.771Z,4.40
2018-05-14T03:50:53.718Z,4.30
2018-05-14T03:51:53.591Z,4.30
2018-05-14T03:52:53.503Z,4.10
2018-05-14T03:53:53.411Z,4.40
2018-05-14T03:54:53.425Z,4.40
2018-05-14T03:55:53.260Z,4.20
2018-05-14T03:56:53.665Z,4.40
2018-05-14T03:57:53.050Z,4.20
2018-05-14T03:58:52.961Z,4.50
2018-05-14T03:59:52.884Z,4.10
2018-05-14T04:00:52.783Z,4.20
2018-05-14T04:01:52.793Z,4.50
2018-05-14T04:02:52.600Z,4.50
2018-05-14T04:03:52.512Z,3.90
2018-05-14T04:04:52.422Z,4.50
2018-05-14T04:05:52.331Z,4.10
2018-05-14T04:06:52.272Z,4.80
2018-05-14T04:07:52.147Z,4.90
2018-05-14T04:08:52.158Z,4.30
2018-05-14T04:09:51.976Z,4.50
2018-05-14T04:10:51.884Z,4.30
2018-05-14T04:11:51.823Z,4.20
2018-05-14T04:12:51.701Z,4.20
2018-05-14T04:13:51.607Z,4.60
2018-05-14T04:14:51.526Z,4.40
2018-05-14T04:15:51.429Z,4.30
2018-05-14T04:16:51.371Z,4.50
2018-05-14T04:17:51.251Z,4.50
2018-05-14T04:18:51.160Z,4.00
2018-05-14T04:19:51.069Z,4.60
2018-05-14T04:20:50.982Z,4.30
2018-05-14T04:21:50.927Z,4.50
2018-05-14T04:22:50.800Z,4.00
2018-05-14T04:23:50.711Z,4.40
2018-05-14T04:24:50.621Z,4.20
2018-05-14T04:25:50.529Z,4.00
2018-05-14T04:26:50.440Z,4.40
2018-05-14T04:27:50.386Z,4.50
2018-05-14T04:28:50.262Z,4.40
2018-05-14T04:29:50.175Z,4.00
2018-05-14T04:30:50.081Z,4.30
2018-05-14T04:31:49.993Z,3.90
2018-05-14T04:32:49.938Z,4.50
2018-05-14T04:33:49.816Z,4.30
2018-05-14T04:34:49.732Z,4.00
2018-05-14T04:35:49.640Z,4.10
2018-05-14T04:36:49.547Z,4.20
2018-05-14T04:37:49.460Z,4.00
2018-05-14T04:38:49.399Z,4.30
2018-05-14T04:39:49.277Z,4.00
2018-05-14T04:40:49.188Z,4.00
2018-05-14T04:41:49.099Z,3.80
2018-05-14T04:42:49.010Z,4.00
2018-05-14T04:43:48.951Z,4.30
2018-05-14T04:44:48.830Z,4.10
2018-05-14T04:45:48.745Z,4.50
2018-05-14T04:46:49.227Z,4.20
2018-05-14T04:47:48.562Z,4.20
2018-05-14T04:48:48.506Z,4.40
2018-05-14T04:49:48.383Z,4.30
2018-05-14T04:50:49.236Z,4.00
2018-05-14T04:51:48.207Z,4.00
2018-05-14T04:52:48.119Z,4.00
2018-05-14T04:53:48.061Z,3.90
2018-05-14T04:54:47.944Z,4.60
2018-05-14T04:55:47.850Z,4.10
2018-05-14T04:56:47.761Z,4.30
2018-05-14T04:57:47.672Z,4.20
2018-05-14T04:58:47.585Z,4.00
2018-05-14T04:59:47.532Z,4.70
2018-05-14T05:00:47.408Z,4.10
2018-05-14T05:01:47.319Z,4.20
2018-05-14T05:02:47.234Z,3.90
2018-05-14T05:03:47.140Z,4.20
2018-05-14T05:04:47.100Z,3.70
2018-05-14T05:05:46.964Z,4.30
2018-05-14T05:06:46.874Z,4.30
2018-05-14T05:07:46.788Z,4.10
2018-05-14T05:08:46.700Z,4.10
2018-05-14T05:09:46.642Z,4.00
2018-05-14T05:10:46.523Z,4.50
2018-05-14T05:11:46.447Z,4.00
2018-05-14T05:12:46.352Z,4.10
2018-05-14T05:13:46.260Z,4.60
2018-05-14T05:14:46.170Z,4.10
2018-05-14T05:15:46.126Z,4.00
2018-05-14T05:16:45.993Z,4.50
2018-05-14T05:17:45.905Z,4.10
2018-05-14T05:18:45.818Z,3.80
2018-05-14T05:19:45.733Z,3.90
2018-05-14T05:20:45.673Z,4.20
2018-05-14T05:21:45.556Z,4.00
2018-05-14T05:22:45.516Z,4.50
2018-05-14T05:23:45.381Z,3.90
2018-05-14T05:24:45.288Z,3.90
2018-05-14T05:25:45.231Z,4.30
2018-05-14T05:26:45.114Z,4.10
2018-05-14T05:27:45.725Z,4.10
2018-05-14T05:28:44.935Z,4.00
2018-05-14T05:29:44.849Z,4.00
2018-05-14T05:30:44.792Z,4.40
2018-05-14T05:31:44.674Z,4.00
2018-05-14T05:32:44.677Z,4.20
2018-05-14T05:33:44.495Z,4.20
2018-05-14T05:34:44.413Z,4.40
2018-05-14T05:35:44.367Z,4.70
2018-05-14T05:36:44.236Z,4.30
2018-05-14T05:37:44.184Z,4.00
2018-05-14T05:38:44.056Z,4.40
2018-05-14T05:39:43.971Z,4.00
2018-05-14T05:40:43.883Z,4.30
2018-05-14T05:41:43.826Z,4.30
2018-05-14T05:42:43.705Z,4.10
2018-05-14T05:43:43.619Z,4.20
2018-05-14T05:44:43.534Z,3.80
2018-05-14T05:45:43.446Z,4.30
2018-05-14T05:46:44.195Z,4.10
2018-05-14T05:47:43.267Z,4.30
2018-05-14T05:48:43.182Z,4.40
2018-05-14T05:49:43.696Z,4.40
2018-05-14T05:50:43.011Z,4.30
2018-05-14T05:51:42.951Z,4.60
2018-05-14T05:52:42.832Z,4.40
2018-05-14T05:53:42.743Z,4.40
2018-05-14T05:54:42.657Z,4.20
2018-05-14T05:55:42.568Z,4.20
2018-05-14T05:56:42.520Z,4.40
2018-05-14T05:57:42.397Z,4.40
2018-05-14T05:58:42.306Z,4.40
2018-05-14T05:59:42.220Z,4.20
2018-05-14T06:00:42.131Z,4.30
2018-05-14T06:01:42.045Z,3.70
2018-05-14T06:02:41.991Z,4.50
2018-05-14T06:03:41.881Z,3.70
2018-05-14T06:04:41.784Z,4.10
2018-05-14T06:05:41.699Z,4.30
2018-05-14T06:06:41.610Z,3.90
2018-05-14T06:07:41.556Z,3.90
2018-05-14T06:08:41.437Z,4.30
2018-05-14T06:09:41.350Z,4.00
2018-05-14T06:10:41.262Z,3.70
2018-05-14T06:11:41.175Z,4.10
2018-05-14T06:12:41.094Z,4.00
2018-05-14T06:13:41.038Z,4.10
2018-05-14T06:14:41.007Z,4.00
2018-05-14T06:15:40.828Z,4.30
2018-05-14T06:16:40.742Z,3.70
2018-05-14T06:17:40.653Z,4.30
2018-05-14T06:18:40.603Z,4.10
2018-05-14T06:19:40.484Z,4.10
2018-05-14T06:20:40.395Z,3.90
2018-05-14T06:21:40.396Z,4.20
2018-05-14T06:22:40.225Z,4.00
2018-05-14T06:23:40.163Z,4.00
2018-05-14T06:24:40.046Z,4.30
2018-05-14T06:25:39.957Z,3.60
2018-05-14T06:26:39.871Z,4.50
2018-05-14T06:27:39.788Z,4.20
2018-05-14T06:28:39.733Z,4.00
2018-05-14T06:29:39.609Z,4.20
2018-05-14T06:30:39.527Z,4.20
2018-05-14T06:31:39.437Z,4.30
2018-05-14T06:32:39.349Z,3.80
2018-05-14T06:33:39.304Z,4.40
2018-05-14T06:34:39.177Z,4.20
2018-05-14T06:35:39.300Z,4.20
2018-05-14T06:36:39.000Z,4.20
2018-05-14T06:37:38.913Z,3.90
2018-05-14T06:38:38.830Z,4.20
2018-05-14T06:39:38.769Z,3.50
2018-05-14T06:40:38.652Z,4.00
2018-05-14T06:41:38.577Z,3.90
2018-05-14T06:42:38.573Z,3.90
2018-05-14T06:43:38.392Z,4.00
2018-05-14T06:44:38.341Z,4.20
2018-05-14T06:45:38.219Z,4.10
2018-05-14T06:46:38.133Z,4.20
2018-05-14T06:47:38.055Z,3.90
2018-05-14T06:48:37.970Z,3.90
2018-05-14T06:49:38.001Z,4.20
2018-05-14T06:50:37.793Z,4.60
2018-05-14T06:51:37.706Z,4.00
2018-05-14T06:52:37.619Z,3.70
2018-05-14T06:53:37.537Z,3.90
2018-05-14T06:54:37.482Z,4.20
2018-05-14T06:55:37.366Z,3.80
2018-05-14T06:56:37.373Z,3.50
2018-05-14T06:57:37.252Z,3.90
2018-05-14T06:58:37.111Z,3.50
2018-05-14T06:59:37.060Z,3.80
2018-05-14T07:00:36.942Z,3.70
2018-05-14T07:01:36.859Z,3.80
2018-05-14T07:02:36.776Z,3.90
2018-05-14T07:03:36.793Z,3.60
2018-05-14T07:04:36.643Z,4.00
2018-05-14T07:05:36.524Z,4.10
2018-05-14T07:06:36.440Z,3.90
2018-05-14T07:07:36.356Z,4.00
2018-05-14T07:08:36.272Z,3.90
2018-05-14T07:09:36.221Z,3.80
2018-05-14T07:10:36.194Z,3.60
2018-05-14T07:11:36.085Z,3.70
2018-05-14T07:12:36.727Z,3.90
2018-05-14T07:13:35.987Z,3.90
2018-05-14T07:14:35.800Z,4.20
2018-05-14T07:15:35.688Z,3.60
2018-05-14T07:16:35.605Z,3.90
2018-05-14T07:17:35.612Z,3.90
2018-05-14T07:18:35.436Z,3.90
2018-05-14T07:19:35.387Z,3.80
2018-05-14T07:20:35.273Z,4.00
2018-05-14T07:21:35.189Z,3.30
2018-05-14T07:22:35.103Z,4.00
2018-05-14T07:23:35.093Z,3.60
2018-05-14T07:24:35.064Z,4.00
2018-05-14T07:25:34.859Z,3.90
2018-05-14T07:26:34.772Z,3.80
2018-05-14T07:27:34.687Z,3.90
2018-05-14T07:28:34.605Z,3.80
2018-05-14T07:29:34.525Z,4.00
2018-05-14T07:30:34.470Z,3.50
2018-05-14T07:31:34.452Z,3.70
2018-05-14T07:32:34.274Z,3.60
2018-05-14T07:33:34.188Z,3.40
2018-05-14T07:34:34.109Z,3.90
2018-05-14T07:35:34.055Z,3.60
2018-05-14T07:36:33.943Z,3.60
2018-05-14T07:37:33.858Z,3.80
2018-05-14T07:38:33.871Z,3.60
2018-05-14T07:39:33.692Z,3.30
2018-05-14T07:40:33.699Z,3.40
2018-05-14T07:41:33.526Z,3.90
2018-05-14T07:42:33.440Z,3.60
2018-05-14T07:43:33.360Z,4.20
2018-05-14T07:44:33.280Z,3.60
2018-05-14T07:45:33.220Z,3.60
2018-05-14T07:46:33.108Z,3.50
2018-05-14T07:47:33.027Z,3.60
2018-05-14T07:48:32.942Z,3.80
2018-05-14T07:49:33.786Z,3.60
2018-05-14T07:50:32.811Z,3.80
2018-05-14T07:51:32.695Z,3.90
2018-05-14T07:52:32.613Z,3.90
2018-05-14T07:53:32.530Z,3.70
2018-05-14T07:54:32.497Z,3.70
2018-05-14T07:55:32.393Z,3.50
2018-05-14T07:56:32.280Z,3.60
2018-05-14T07:57:32.197Z,3.70
2018-05-14T07:58:32.116Z,3.90
2018-05-14T07:59:32.069Z,3.60
2018-05-14T08:00:31.982Z,3.80
2018-05-14T08:01:31.871Z,3.80
2018-05-14T08:02:31.784Z,3.40
2018-05-14T08:03:32.243Z,3.30
2018-05-14T08:04:31.621Z,3.80
2018-05-14T08:05:31.640Z,3.70
2018-05-14T08:06:31.457Z,3.60
2018-05-14T08:07:31.377Z,3.80
2018-05-14T08:08:31.291Z,3.70
2018-05-14T08:09:31.214Z,3.20
2018-05-14T08:10:31.159Z,3.40
2018-05-14T08:11:31.047Z,3.30
2018-05-14T08:12:30.964Z,3.50
2018-05-14T08:13:30.881Z,3.50
2018-05-14T08:14:30.802Z,3.40
2018-05-14T08:15:30.747Z,3.50
2018-05-14T08:16:30.636Z,3.30
2018-05-14T08:17:30.550Z,3.10
2018-05-14T08:18:30.470Z,3.60
2018-05-14T08:19:30.385Z,3.30
2018-05-14T08:20:30.339Z,3.40
2018-05-14T08:21:30.222Z,3.60
2018-05-14T08:22:30.140Z,3.60
2018-05-14T08:23:30.077Z,3.30
2018-05-14T08:24:29.975Z,3.20
2018-05-14T08:25:29.922Z,3.40
2018-05-14T08:26:29.806Z,3.30
2018-05-14T08:27:29.729Z,3.60
2018-05-14T08:28:29.644Z,3.50
2018-05-14T08:29:29.562Z,3.40
2018-05-14T08:30:29.508Z,3.50
2018-05-14T08:31:29.404Z,3.00
2018-05-14T08:32:29.315Z,3.40
2018-05-14T08:33:29.228Z,3.60
2018-05-14T08:34:29.151Z,3.00
2018-05-14T08:35:29.098Z,3.60
2018-05-14T08:36:28.985Z,3.60
2018-05-14T08:37:28.905Z,3.40
2018-05-14T08:38:28.820Z,3.40
2018-05-14T08:39:28.742Z,3.20
2018-05-14T08:40:28.689Z,3.30
2018-05-14T08:41:28.577Z,3.50
2018-05-14T08:42:28.516Z,3.50
2018-05-14T08:43:28.413Z,3.10
2018-05-14T08:44:28.330Z,3.40
2018-05-14T08:45:28.251Z,3.40
2018-05-14T08:46:28.198Z,3.30
2018-05-14T08:47:28.089Z,3.50
2018-05-14T08:48:28.005Z,3.30
2018-05-14T08:49:28.052Z,3.20
2018-05-14T08:50:27.844Z,3.30
2018-05-14T08:51:27.796Z,3.30
2018-05-14T08:52:27.687Z,3.10
2018-05-14T08:53:27.596Z,3.00
2018-05-14T08:54:27.591Z,3.60
2018-05-14T08:55:27.438Z,2.90
2018-05-14T08:56:27.394Z,3.50
2018-05-14T08:57:27.315Z,3.40
2018-05-14T08:58:27.192Z,3.60
2018-05-14T08:59:27.113Z,3.20
2018-05-14T09:00:27.031Z,3.30
2018-05-14T09:01:27.074Z,2.90
2018-05-14T09:02:26.871Z,3.20
2018-05-14T09:03:26.788Z,3.50
2018-05-14T09:04:26.710Z,3.90
2018-05-14T09:05:26.626Z,3.20
2018-05-14T09:06:26.577Z,3.00
2018-05-14T09:07:26.467Z,3.60
2018-05-14T09:08:27.302Z,3.30
2018-05-14T09:09:26.304Z,3.30
2018-05-14T09:10:26.224Z,3.30
2018-05-14T09:11:26.174Z,3.40
2018-05-14T09:12:26.060Z,3.00
2018-05-14T09:13:25.980Z,3.40
2018-05-14T09:14:25.902Z,3.30
2018-05-14T09:15:25.910Z,3.20
2018-05-14T09:16:25.768Z,2.90
2018-05-14T09:17:26.271Z,3.30
2018-05-14T09:18:25.574Z,3.30
2018-05-14T09:19:25.530Z,3.20
2018-05-14T09:20:25.414Z,3.00
2018-05-14T09:21:25.360Z,3.30
2018-05-14T09:22:25.342Z,3.30
2018-05-14T09:23:25.167Z,3.40
2018-05-14T09:24:25.086Z,3.30
2018-05-14T09:25:25.009Z,3.30
2018-05-14T09:26:24.955Z,3.20
2018-05-14T09:27:24.841Z,3.10
2018-05-14T09:28:24.766Z,3.50
2018-05-14T09:29:24.772Z,3.20
2018-05-14T09:30:24.597Z,3.70
2018-05-14T09:31:24.569Z,4.40
2018-05-14T09:32:24.435Z,3.40
2018-05-14T09:33:25.831Z,3.10
2018-05-14T09:34:24.272Z,2.80
2018-05-14T09:35:24.193Z,3.20
2018-05-14T09:36:25.776Z,3.10
2018-05-14T09:37:25.777Z,3.20
2018-05-14T09:38:23.947Z,3.30
2018-05-14T09:39:23.867Z,3.30
2018-05-14T09:40:23.787Z,3.20
2018-05-14T09:41:23.734Z,3.30
2018-05-14T09:42:23.624Z,3.40
2018-05-14T09:43:23.636Z,2.50
2018-05-14T09:44:23.462Z,2.80
2018-05-14T09:45:23.380Z,2.90
2018-05-14T09:46:23.334Z,3.00
2018-05-14T09:47:23.217Z,3.40
2018-05-14T09:48:23.139Z,3.40
2018-05-14T09:49:23.057Z,3.10
2018-05-14T09:50:23.155Z,3.30
2018-05-14T09:51:22.927Z,2.90
2018-05-14T09:52:22.812Z,2.80
2018-05-14T09:53:22.733Z,3.30
2018-05-14T09:54:22.653Z,2.80
2018-05-14T09:55:22.572Z,3.00
2018-05-14T09:56:22.522Z,3.10
2018-05-14T09:57:22.523Z,3.10
2018-05-14T09:58:22.329Z,3.20
2018-05-14T09:59:22.248Z,3.00
2018-05-14T10:00:22.166Z,3.00
2018-05-14T10:01:22.088Z,3.30
2018-05-14T10:02:22.036Z,3.10
2018-05-14T10:03:21.925Z,3.10
2018-05-14T10:04:21.940Z,3.10
2018-05-14T10:05:21.765Z,3.20
2018-05-14T10:06:21.696Z,2.90
2018-05-14T10:07:21.636Z,3.30
2018-05-14T10:08:21.521Z,2.60
2018-05-14T10:09:21.442Z,2.70
2018-05-14T10:10:22.292Z,3.10
2018-05-14T10:11:21.373Z,2.70
2018-05-14T10:12:21.232Z,2.90
2018-05-14T10:13:21.118Z,2.80
2018-05-14T10:14:21.039Z,3.30
2018-05-14T10:15:20.960Z,7.10
2018-05-14T10:16:20.878Z,2.90
2018-05-14T10:17:20.828Z,2.50
2018-05-14T10:18:20.824Z,3.00
2018-05-14T10:19:20.637Z,2.90
2018-05-14T10:20:20.556Z,2.80
2018-05-14T10:21:20.478Z,2.70
2018-05-14T10:22:20.427Z,2.60
2018-05-14T10:23:20.318Z,2.50
2018-05-14T10:24:20.236Z,2.80
2018-05-14T10:25:20.249Z,2.80
2018-05-14T10:26:20.074Z,3.10
2018-05-14T10:27:20.027Z,3.10
2018-05-14T10:28:19.911Z,2.90
2018-05-14T10:29:19.846Z,3.10
2018-05-14T10:30:19.753Z,3.30
2018-05-14T10:31:19.671Z,3.20
2018-05-14T10:32:19.711Z,2.90
2018-05-14T10:33:19.510Z,2.90
2018-05-14T10:34:19.430Z,3.10
2018-05-14T10:35:21.300Z,3.00
2018-05-14T10:36:19.270Z,2.90
2018-05-14T10:37:19.224Z,2.80
2018-05-14T10:38:19.106Z,3.00
2018-05-14T10:39:19.029Z,2.60
2018-05-14T10:40:18.944Z,3.10
2018-05-14T10:41:18.870Z,2.60
2018-05-14T10:42:18.816Z,2.20
2018-05-14T10:43:18.705Z,2.30
2018-05-14T10:44:18.624Z,2.60
2018-05-14T10:45:18.550Z,2.50
2018-05-14T10:46:18.461Z,2.70
2018-05-14T10:47:19.304Z,3.00
2018-05-14T10:48:18.301Z,3.10
2018-05-14T10:49:18.219Z,3.10
2018-05-14T10:50:18.138Z,2.90
2018-05-14T10:51:18.057Z,2.80
2018-05-14T10:52:18.007Z,2.40
2018-05-14T10:53:17.895Z,2.70
2018-05-14T10:54:17.817Z,2.60
2018-05-14T10:55:17.733Z,2.70
2018-05-14T10:56:17.655Z,2.80
2018-05-14T10:57:18.309Z,3.00
2018-05-14T10:58:17.494Z,2.70
2018-05-14T10:59:17.413Z,2.60
2018-05-14T11:00:17.334Z,2.90
2018-05-14T11:01:17.253Z,2.30
2018-05-14T11:02:17.205Z,2.40
2018-05-14T11:03:17.095Z,2.30
2018-05-14T11:04:17.020Z,2.60
2018-05-14T11:05:16.933Z,2.10
2018-05-14T11:06:16.857Z,2.50
2018-05-14T11:07:16.808Z,2.40
2018-05-14T11:08:16.693Z,2.30
2018-05-14T11:09:16.613Z,2.60
2018-05-14T11:10:16.529Z,2.30
2018-05-14T11:11:16.455Z,2.50
2018-05-14T11:12:16.404Z,2.60
2018-05-14T11:13:16.293Z,2.50
2018-05-14T11:14:16.213Z,2.30
2018-05-14T11:15:16.132Z,2.70
2018-05-14T11:16:16.064Z,2.90
2018-05-14T11:17:15.975Z,2.40
2018-05-14T11:18:15.923Z,2.70
2018-05-14T11:19:15.812Z,2.60
2018-05-14T11:20:15.732Z,2.70
2018-05-14T11:21:15.941Z,2.30
2018-05-14T11:22:15.576Z,2.60
2018-05-14T11:23:15.525Z,2.60
2018-05-14T11:24:15.412Z,2.40
2018-05-14T11:25:15.819Z,2.70
2018-05-14T11:26:15.256Z,2.50
2018-05-14T11:27:15.194Z,2.50
2018-05-14T11:28:15.124Z,2.20
2018-05-14T11:29:15.013Z,2.40
2018-05-14T11:30:14.934Z,2.10
2018-05-14T11:31:14.854Z,2.50
2018-05-14T11:32:14.775Z,2.50
2018-05-14T11:33:14.725Z,2.40
2018-05-14T11:34:14.612Z,2.60
2018-05-14T11:35:14.626Z,2.50
2018-05-14T11:36:14.459Z,2.70
2018-05-14T11:37:14.375Z,2.70
2018-05-14T11:38:14.325Z,2.70
2018-05-14T11:39:14.222Z,2.60
2018-05-14T11:40:14.147Z,2.70
2018-05-14T11:41:14.056Z,2.80
2018-05-14T11:42:14.068Z,2.90
2018-05-14T11:43:13.926Z,2.90
2018-05-14T11:44:13.814Z,3.00
2018-05-14T11:45:13.748Z,2.50
2018-05-14T11:46:13.666Z,2.50
2018-05-14T11:47:13.576Z,2.80
2018-05-14T11:48:13.529Z,2.80
2018-05-14T11:49:13.510Z,3.00
2018-05-14T11:50:13.340Z,2.80
2018-05-14T11:51:13.257Z,2.50
2018-05-14T11:52:13.202Z,2.90
2018-05-14T11:53:13.128Z,2.90
2018-05-14T11:54:13.019Z,2.90
2018-05-14T11:55:12.943Z,2.60
2018-05-14T11:56:12.952Z,2.70
2018-05-14T11:57:12.777Z,3.00
2018-05-14T11:58:12.729Z,2.70
2018-05-14T11:59:12.623Z,2.60
2018-05-14T12:00:12.541Z,2.80
2018-05-14T12:01:12.458Z,2.70
2018-05-14T12:02:12.379Z,3.20
2018-05-14T12:03:12.510Z,2.70
2018-05-14T12:04:12.226Z,2.90
2018-05-14T12:05:12.139Z,2.80
2018-05-14T12:06:12.060Z,2.90
2018-05-14T12:07:11.983Z,3.10
2018-05-14T12:08:11.934Z,3.20
2018-05-14T12:09:11.822Z,3.10
2018-05-14T12:10:11.851Z,2.90
2018-05-14T12:11:11.661Z,3.10
2018-05-14T12:12:11.624Z,3.00
2018-05-14T12:13:11.531Z,3.10
2018-05-14T12:14:11.424Z,3.10
2018-05-14T12:15:11.353Z,2.80
2018-05-14T12:16:11.343Z,2.70
2018-05-14T12:17:11.275Z,3.00
2018-05-14T12:18:11.148Z,3.10
2018-05-14T12:19:11.023Z,3.00
2018-05-14T12:20:10.941Z,3.20
2018-05-14T12:21:10.860Z,2.70
2018-05-14T12:22:10.783Z,2.60
2018-05-14T12:23:10.733Z,2.70
2018-05-14T12:24:10.719Z,2.40
2018-05-14T12:25:10.541Z,2.50
2018-05-14T12:26:10.465Z,3.10
2018-05-14T12:27:10.897Z,2.90
2018-05-14T12:28:10.303Z,2.90
2018-05-14T12:29:10.251Z,2.90
2018-05-14T12:30:10.235Z,3.00
2018-05-14T12:31:10.066Z,3.00
2018-05-14T12:32:10.074Z,3.20
2018-05-14T12:33:09.903Z,3.30
2018-05-14T12:34:09.855Z,3.00
2018-05-14T12:35:09.746Z,3.00
2018-05-14T12:36:09.665Z,2.80
2018-05-14T12:37:09.580Z,3.00
2018-05-14T12:38:09.514Z,3.10
2018-05-14T12:39:10.348Z,3.00
2018-05-14T12:40:09.343Z,3.30
2018-05-14T12:41:09.264Z,3.20
2018-05-14T12:42:09.184Z,2.80
2018-05-14T12:43:09.110Z,3.00
2018-05-14T12:44:09.851Z,2.90
2018-05-14T12:45:08.943Z,3.20
2018-05-14T12:46:08.959Z,2.90
2018-05-14T12:47:08.786Z,2.80
2018-05-14T12:48:08.707Z,2.80
2018-05-14T12:49:08.658Z,2.40
2018-05-14T12:50:08.559Z,2.80
2018-05-14T12:51:08.467Z,2.90
2018-05-14T12:52:08.386Z,3.10
2018-05-14T12:53:08.308Z,2.70
2018-05-14T12:54:08.256Z,2.80
2018-05-14T12:55:08.151Z,3.20
2018-05-14T12:56:08.070Z,3.10
2018-05-14T12:57:08.042Z,2.90
2018-05-14T12:58:07.909Z,3.20
2018-05-14T12:59:07.865Z,3.00
2018-05-14T13:00:07.753Z,2.70
2018-05-14T13:01:07.673Z,2.40
2018-05-14T13:02:09.357Z,2.80
2018-05-14T13:03:07.515Z,2.70
2018-05-14T13:04:07.467Z,2.90
2018-05-14T13:05:07.479Z,3.00
2018-05-14T13:06:07.859Z,2.50
2018-05-14T13:07:07.257Z,3.00
2018-05-14T13:08:07.115Z,2.80
2018-05-14T13:09:07.066Z,2.90
2018-05-14T13:10:06.955Z,2.80
2018-05-14T13:11:06.878Z,2.80
2018-05-14T13:12:06.793Z,2.50
2018-05-14T13:13:07.436Z,2.60
2018-05-14T13:14:06.668Z,3.00
2018-05-14T13:15:06.556Z,2.70
2018-05-14T13:16:06.491Z,3.00
2018-05-14T13:17:06.392Z,2.80